Time;durP1;ratioP1;P1;durP2;ratioP2;P2;SDS_P1;SDS_P2;PMS_P1;PMS_P2;Temp;Humidity;BMP_temperature;BMP_pressure;BME280_temperature;BME280_humidity;BME280_pressure;Samples;Min_cycle;Max_cycle;Signal;HPM_P1;HPM_P2
2022/12/03 00:01:02;;;;;;;28.13;22.53;;;1.30;99.90;;;;;;5065297;28;20466;-69
2022/12/03 00:03:29;;;;;;;27.20;20.90;;;1.50;99.90;;;;;;5062593;28;21000;-69
2022/12/03 00:05:56;;;;;;;26.90;22.40;;;1.30;99.90;;;;;;5054793;28;20496;-69
2022/12/03 00:08:22;;;;;;;23.03;20.30;;;1.40;99.90;;;;;;5060481;28;20470;-69
2022/12/03 00:10:49;;;;;;;26.10;20.90;;;1.40;99.90;;;;;;5061978;28;20467;-69
2022/12/03 00:13:16;;;;;;;28.10;20.57;;;1.40;99.90;;;;;;5055708;28;20954;-69
2022/12/03 00:15:45;;;;;;;29.80;21.53;;;1.40;99.90;;;;;;5056731;28;20466;-70
2022/12/03 00:18:12;;;;;;;24.30;19.90;;;1.40;99.90;;;;;;5060337;28;20545;-69
2022/12/03 00:20:39;;;;;;;27.27;21.03;;;1.40;99.90;;;;;;5054054;28;20463;-69
2022/12/03 00:23:06;;;;;;;25.50;21.70;;;1.50;99.90;;;;;;5064657;28;20803;-70
2022/12/03 00:25:33;;;;;;;25.37;20.77;;;1.50;99.90;;;;;;5056637;28;20459;-70
2022/12/03 00:28:00;;;;;;;28.13;20.47;;;1.60;99.90;;;;;;5062233;28;20494;-69
2022/12/03 00:30:27;;;;;;;22.30;19.83;;;1.60;99.90;;;;;;5057438;28;20809;-69
2022/12/03 00:32:56;;;;;;;23.47;20.73;;;1.60;99.90;;;;;;5057476;28;20966;-69
2022/12/03 00:35:23;;;;;;;26.47;21.17;;;1.50;99.90;;;;;;5061806;28;20469;-69
2022/12/03 00:37:50;;;;;;;27.50;21.90;;;1.60;99.90;;;;;;5060602;28;20474;-69
2022/12/03 00:40:17;;;;;;;23.83;20.37;;;1.50;99.90;;;;;;5059443;28;20469;-69
2022/12/03 00:42:45;;;;;;;25.77;20.40;;;1.40;99.90;;;;;;5061979;28;20465;-69
2022/12/03 00:45:12;;;;;;;25.90;21.50;;;1.30;99.90;;;;;;5060351;28;20980;-69
2022/12/03 00:47:41;;;;;;;26.30;21.30;;;1.40;99.90;;;;;;5060875;28;20506;-69
2022/12/03 00:50:11;;;;;;;23.40;19.63;;;1.40;99.90;;;;;;5057356;28;21102;-69
2022/12/03 00:52:37;;;;;;;26.70;21.53;;;1.40;99.90;;;;;;5055334;28;20469;-69
2022/12/03 00:55:05;;;;;;;25.80;20.43;;;1.40;99.90;;;;;;5060229;28;20470;-70
2022/12/03 00:57:32;;;;;;;24.60;20.60;;;1.50;99.90;;;;;;5058720;28;20957;-69
2022/12/03 01:00:00;;;;;;;21.43;19.13;;;1.50;99.90;;;;;;5057828;28;20463;-69
2022/12/03 01:02:27;;;;;;;25.10;20.77;;;1.50;99.90;;;;;;5053411;28;20809;-69
2022/12/03 01:04:53;;;;;;;22.57;19.43;;;1.50;99.90;;;;;;5059423;28;20985;-69
2022/12/03 01:07:22;;;;;;;25.30;19.83;;;1.60;99.90;;;;;;5056928;28;21003;-69
2022/12/03 01:09:49;;;;;;;24.57;21.30;;;1.70;99.90;;;;;;5055814;28;20459;-69
2022/12/03 01:12:16;;;;;;;28.03;20.67;;;1.70;99.90;;;;;;5059964;28;20463;-69
2022/12/03 01:14:43;;;;;;;21.43;19.13;;;1.60;99.90;;;;;;5064295;28;20461;-69
2022/12/03 01:17:11;;;;;;;27.20;21.27;;;1.60;99.90;;;;;;5052106;28;20471;-70
2022/12/03 01:19:38;;;;;;;23.50;20.17;;;1.60;99.90;;;;;;5061553;28;20715;-69
2022/12/03 01:22:05;;;;;;;23.30;19.97;;;1.60;99.90;;;;;;5057212;28;20470;-69
2022/12/03 01:24:33;;;;;;;24.53;20.33;;;1.60;99.90;;;;;;5062173;28;20492;-69
2022/12/03 01:27:00;;;;;;;23.30;20.80;;;1.60;99.90;;;;;;5058340;28;20471;-69
2022/12/03 01:29:27;;;;;;;22.40;20.07;;;1.70;99.90;;;;;;5058724;28;20983;-69
2022/12/03 01:34:39;;;;;;;26.30;21.77;;;1.90;99.90;;;;;;5050948;28;20493;-69
2022/12/03 01:37:05;;;;;;;28.30;21.57;;;1.90;99.90;;;;;;5056990;28;20470;-69
2022/12/03 01:39:33;;;;;;;24.47;21.10;;;1.90;99.90;;;;;;5063220;28;21101;-69
2022/12/03 01:42:02;;;;;;;25.47;20.30;;;2.00;99.90;;;;;;5055309;28;20459;-69
2022/12/03 01:44:31;;;;;;;26.03;20.70;;;1.80;99.90;;;;;;5056669;28;20489;-69
2022/12/03 01:47:02;;;;;;;25.73;20.20;;;1.90;99.90;;;;;;5056623;28;20841;-69
2022/12/03 01:49:31;;;;;;;24.73;21.07;;;1.90;99.90;;;;;;5056469;28;20483;-69
2022/12/03 01:51:59;;;;;;;24.90;20.70;;;1.90;99.90;;;;;;5053282;28;20463;-69
2022/12/03 01:54:28;;;;;;;24.87;21.87;;;1.90;99.90;;;;;;5068172;28;20590;-69
2022/12/03 01:56:56;;;;;;;22.70;20.13;;;2.00;99.90;;;;;;5058737;28;20466;-69
2022/12/03 01:59:31;;;;;;;28.33;21.97;;;2.00;99.90;;;;;;5058139;28;20464;-69
2022/12/03 02:02:00;;;;;;;19.67;17.67;;;2.00;99.90;;;;;;5055080;28;21386;-69
2022/12/03 02:04:27;;;;;;;22.63;19.77;;;2.10;99.90;;;;;;5052591;28;20483;-69
2022/12/03 02:06:54;;;;;;;26.17;21.60;;;2.00;99.90;;;;;;5053468;28;20876;-70
2022/12/03 02:09:20;;;;;;;22.77;20.40;;;2.10;99.90;;;;;;5053652;28;20454;-69
2022/12/03 02:11:50;;;;;;;22.93;20.03;;;2.10;99.90;;;;;;5055811;28;20463;-69
2022/12/03 02:14:21;;;;;;;25.00;19.90;;;1.90;99.90;;;;;;5058972;28;20470;-69
2022/12/03 02:16:48;;;;;;;26.60;21.70;;;2.00;99.90;;;;;;5059399;28;20512;-69
2022/12/03 02:19:24;;;;;;;27.07;19.43;;;2.10;99.90;;;;;;5065765;28;20465;-69
2022/12/03 02:21:58;;;;;;;24.57;20.93;;;2.20;99.90;;;;;;5060530;28;20553;-69
2022/12/03 02:24:33;;;;;;;21.07;18.97;;;2.20;99.90;;;;;;5060680;28;20492;-69
2022/12/03 02:27:01;;;;;;;24.63;19.80;;;2.10;99.90;;;;;;5062191;28;20466;-69
2022/12/03 02:29:28;;;;;;;22.93;20.60;;;2.20;99.90;;;;;;5047255;28;20471;-69
2022/12/03 02:31:55;;;;;;;27.20;22.53;;;2.10;99.90;;;;;;5056211;28;20464;-69
2022/12/03 02:34:39;;;;;;;25.97;20.60;;;2.10;99.90;;;;;;5069751;28;20470;-69
2022/12/03 02:37:09;;;;;;;23.67;19.10;;;2.20;99.90;;;;;;5056760;28;20465;-69
2022/12/03 02:39:38;;;;;;;29.87;21.33;;;2.10;99.90;;;;;;5055675;28;20462;-69
2022/12/03 02:44:53;;;;;;;24.93;20.83;;;2.10;99.90;;;;;;5055332;28;20970;-69
2022/12/03 02:47:21;;;;;;;26.87;21.50;;;2.10;99.90;;;;;;5059487;28;20458;-69
2022/12/03 02:49:48;;;;;;;25.43;21.03;;;2.10;99.90;;;;;;5055109;28;20489;-70
2022/12/03 02:52:15;;;;;;;26.27;21.57;;;2.20;99.90;;;;;;5061174;28;20463;-69
2022/12/03 02:54:42;;;;;;;31.90;22.70;;;2.20;99.90;;;;;;5053751;28;20469;-69
2022/12/03 02:57:11;;;;;;;20.80;18.60;;;2.20;99.90;;;;;;5050011;28;20873;-69
2022/12/03 02:59:38;;;;;;;31.93;21.63;;;2.20;99.90;;;;;;5065007;28;20671;-69
2022/12/03 03:02:05;;;;;;;23.23;20.03;;;2.30;99.90;;;;;;5056329;28;20472;-69
2022/12/03 03:04:31;;;;;;;24.37;20.73;;;2.10;99.90;;;;;;5056875;28;21023;-69
2022/12/03 03:06:59;;;;;;;23.97;21.00;;;2.10;99.90;;;;;;5056657;28;20462;-69
2022/12/03 03:09:25;;;;;;;29.90;23.03;;;2.10;99.90;;;;;;5057766;28;20458;-69
2022/12/03 03:11:53;;;;;;;26.33;22.10;;;2.00;99.90;;;;;;5055278;28;20467;-69
2022/12/03 03:14:21;;;;;;;25.80;19.87;;;2.00;99.90;;;;;;5052442;28;20470;-69
2022/12/03 03:16:54;;;;;;;22.13;19.77;;;2.10;99.90;;;;;;5054656;28;20496;-69
2022/12/03 03:19:22;;;;;;;27.13;20.87;;;2.10;99.90;;;;;;5054453;28;20467;-69
2022/12/03 03:21:49;;;;;;;24.67;21.50;;;2.00;99.90;;;;;;5058639;28;20497;-69
2022/12/03 03:24:16;;;;;;;30.43;21.50;;;2.00;99.90;;;;;;5061349;28;20471;-69
2022/12/03 03:26:43;;;;;;;23.80;21.00;;;2.10;99.90;;;;;;5068330;28;20470;-69
2022/12/03 03:29:10;;;;;;;28.93;21.83;;;2.00;99.90;;;;;;5055182;28;20460;-69
2022/12/03 03:31:39;;;;;;;24.03;20.77;;;2.10;99.90;;;;;;5053190;28;20464;-69
2022/12/03 03:34:07;;;;;;;29.50;23.23;;;2.10;99.90;;;;;;5054593;28;20829;-69
2022/12/03 03:36:34;;;;;;;26.33;21.00;;;2.00;99.90;;;;;;5064231;28;20474;-69
2022/12/03 03:39:01;;;;;;;24.50;20.37;;;2.00;99.90;;;;;;5058020;28;20464;-69
2022/12/03 03:41:28;;;;;;;23.70;20.60;;;2.10;99.90;;;;;;5058561;28;20826;-69
2022/12/03 03:43:56;;;;;;;25.13;19.87;;;2.20;99.90;;;;;;5060103;28;20529;-69
2022/12/03 03:46:23;;;;;;;24.60;21.13;;;2.00;99.90;;;;;;5052111;28;20836;-69
2022/12/03 03:48:52;;;;;;;26.53;20.83;;;2.00;99.90;;;;;;5059745;28;20851;-69
2022/12/03 03:51:19;;;;;;;24.87;20.97;;;2.10;99.90;;;;;;5056019;28;21116;-69
2022/12/03 03:53:48;;;;;;;25.60;21.40;;;2.20;99.90;;;;;;5057107;28;20471;-69
2022/12/03 03:56:16;;;;;;;24.13;21.40;;;2.20;99.90;;;;;;5061224;28;20463;-69
2022/12/03 03:58:43;;;;;;;26.33;21.40;;;2.10;99.90;;;;;;5062109;28;20462;-70
2022/12/03 04:01:12;;;;;;;24.73;21.27;;;2.10;99.90;;;;;;5059550;28;20543;-69
2022/12/03 04:03:39;;;;;;;24.20;20.57;;;2.10;99.90;;;;;;5058185;28;20467;-69
2022/12/03 04:06:08;;;;;;;26.80;20.93;;;2.10;99.90;;;;;;5060971;28;20498;-69
2022/12/03 04:08:35;;;;;;;25.60;22.07;;;2.20;99.90;;;;;;5060208;28;20463;-69
2022/12/03 04:13:47;;;;;;;27.93;22.97;;;2.10;99.90;;;;;;5060792;28;20458;-69
2022/12/03 04:16:14;;;;;;;26.70;22.00;;;2.20;99.90;;;;;;5059777;28;20473;-69
2022/12/03 04:18:43;;;;;;;24.20;18.80;;;2.20;99.90;;;;;;5059329;28;20486;-69
2022/12/03 04:23:58;;;;;;;27.90;22.10;;;2.00;99.90;;;;;;5058100;28;20477;-69
2022/12/03 04:29:09;;;;;;;24.10;20.40;;;2.10;99.90;;;;;;5053757;28;20467;-69
2022/12/03 04:37:06;;;;;;;25.30;21.93;;;1.90;99.90;;;;;;5060650;28;20481;-69
2022/12/03 04:39:33;;;;;;;27.40;20.10;;;2.00;99.90;;;;;;5055201;28;20497;-69
2022/12/03 04:42:00;;;;;;;27.90;21.47;;;2.00;99.90;;;;;;5056539;28;20810;-69
2022/12/03 04:44:34;;;;;;;27.90;23.53;;;1.90;99.90;;;;;;5055744;28;20496;-69
2022/12/03 04:47:03;;;;;;;24.87;20.17;;;1.90;99.90;;;;;;5053692;28;20463;-69
2022/12/03 04:49:30;;;;;;;28.33;21.40;;;1.80;99.90;;;;;;5058675;28;20870;-69
2022/12/03 04:51:56;;;;;;;27.43;21.40;;;2.00;99.90;;;;;;5056038;28;20478;-69
2022/12/03 04:54:25;;;;;;;30.63;21.03;;;1.90;99.90;;;;;;5058834;28;20459;-69
2022/12/03 04:56:51;;;;;;;24.17;20.17;;;1.90;99.90;;;;;;5052809;28;20834;-69
2022/12/03 04:59:18;;;;;;;27.93;21.10;;;1.80;99.90;;;;;;5061714;28;20474;-69
2022/12/03 05:01:45;;;;;;;27.03;21.30;;;1.90;99.90;;;;;;5058230;28;20990;-69
2022/12/03 05:04:12;;;;;;;27.20;20.80;;;1.90;99.90;;;;;;5051647;28;20486;-69
2022/12/03 05:06:40;;;;;;;25.20;20.80;;;1.90;99.90;;;;;;5063362;28;20480;-69
2022/12/03 05:09:06;;;;;;;27.83;22.20;;;1.90;99.90;;;;;;5057001;28;21238;-69
2022/12/03 05:11:34;;;;;;;26.03;21.20;;;1.90;99.90;;;;;;5057048;28;20474;-69
2022/12/03 05:14:02;;;;;;;31.37;22.37;;;2.00;99.90;;;;;;5063520;28;20922;-69
2022/12/03 05:16:29;;;;;;;30.70;23.30;;;2.00;99.90;;;;;;5058391;28;20576;-69
2022/12/03 05:18:55;;;;;;;25.77;19.17;;;1.90;99.90;;;;;;5059063;28;20872;-69
2022/12/03 05:21:21;;;;;;;28.77;22.60;;;1.80;99.90;;;;;;5049969;28;20498;-70
2022/12/03 05:23:48;;;;;;;35.07;21.87;;;1.80;99.90;;;;;;5053407;28;20459;-69
2022/12/03 05:26:15;;;;;;;31.73;22.67;;;1.80;99.90;;;;;;5056473;28;20258;-70
2022/12/03 05:28:44;;;;;;;30.17;21.17;;;1.90;99.90;;;;;;5059419;28;20462;-69
2022/12/03 05:31:10;;;;;;;28.57;21.27;;;1.80;99.90;;;;;;5056830;28;20488;-69
2022/12/03 05:33:38;;;;;;;25.50;20.93;;;1.90;99.90;;;;;;5059259;28;21048;-69
2022/12/03 05:36:04;;;;;;;26.60;20.53;;;1.90;99.90;;;;;;5059117;28;20498;-69
2022/12/03 05:38:31;;;;;;;27.60;21.17;;;1.90;99.90;;;;;;5053375;28;20650;-69
2022/12/03 05:40:59;;;;;;;31.77;20.60;;;1.80;99.90;;;;;;5055019;28;20475;-69
2022/12/03 05:43:24;;;;;;;27.03;19.87;;;1.90;99.90;;;;;;5053556;28;20467;-69
2022/12/03 05:45:53;;;;;;;31.50;21.17;;;1.80;99.90;;;;;;5051546;28;20518;-69
2022/12/03 05:48:19;;;;;;;32.33;23.37;;;1.90;99.90;;;;;;5053563;28;20255;-69
2022/12/03 05:50:47;;;;;;;35.70;22.13;;;1.90;99.90;;;;;;5051563;28;20473;-69
2022/12/03 05:53:14;;;;;;;26.70;20.73;;;1.80;99.90;;;;;;5058659;28;20938;-69
2022/12/03 05:55:41;;;;;;;30.63;20.87;;;1.80;99.90;;;;;;5060908;28;20463;-69
2022/12/03 05:58:08;;;;;;;28.93;21.20;;;1.90;99.90;;;;;;5060010;28;20467;-69
2022/12/03 06:00:37;;;;;;;30.53;21.23;;;1.80;99.90;;;;;;5062694;28;20494;-69
2022/12/03 06:03:06;;;;;;;26.50;19.97;;;1.80;99.90;;;;;;5058083;28;20492;-69
2022/12/03 06:05:33;;;;;;;30.63;21.40;;;1.80;99.90;;;;;;5055980;28;20496;-69
2022/12/03 06:08:00;;;;;;;26.90;20.73;;;1.80;99.90;;;;;;5054088;28;20469;-69
2022/12/03 06:10:28;;;;;;;30.53;22.10;;;1.80;99.90;;;;;;5058701;28;20471;-69
2022/12/03 06:12:54;;;;;;;32.30;23.73;;;1.90;99.90;;;;;;5058594;28;20456;-69
2022/12/03 06:15:22;;;;;;;33.07;22.10;;;1.90;99.90;;;;;;5054685;28;20466;-69
2022/12/03 06:17:50;;;;;;;28.60;22.20;;;1.80;99.90;;;;;;5051719;28;20551;-69
2022/12/03 06:20:20;;;;;;;31.13;21.67;;;1.70;99.90;;;;;;5050650;28;20798;-69
2022/12/03 06:22:48;;;;;;;28.30;21.00;;;1.60;99.90;;;;;;5052756;28;20659;-69
2022/12/03 06:25:16;;;;;;;33.17;20.77;;;1.60;99.90;;;;;;5053504;28;20493;-70
2022/12/03 06:27:43;;;;;;;26.60;21.23;;;1.60;99.90;;;;;;5061652;28;20469;-69
2022/12/03 06:30:12;;;;;;;32.13;21.20;;;1.60;99.90;;;;;;5054081;28;20549;-69
2022/12/03 06:32:39;;;;;;;30.50;20.83;;;1.70;99.90;;;;;;5057940;28;20458;-69
2022/12/03 06:35:06;;;;;;;31.27;22.20;;;1.60;99.90;;;;;;5060117;28;20898;-69
2022/12/03 06:37:34;;;;;;;28.03;20.37;;;1.60;99.90;;;;;;5060950;28;20474;-69
2022/12/03 06:40:01;;;;;;;32.70;22.43;;;1.70;99.90;;;;;;5058799;28;20473;-69
2022/12/03 06:42:28;;;;;;;27.13;20.90;;;1.60;99.90;;;;;;5057141;28;20505;-69
2022/12/03 06:44:55;;;;;;;31.67;21.10;;;1.70;99.90;;;;;;5062757;28;20491;-69
2022/12/03 06:47:22;;;;;;;31.50;21.53;;;1.70;99.90;;;;;;5059581;28;21017;-69
2022/12/03 06:49:48;;;;;;;29.67;22.50;;;1.80;99.90;;;;;;5057868;28;20470;-69
2022/12/03 06:52:15;;;;;;;32.67;22.00;;;1.80;99.90;;;;;;5043915;28;20971;-69
2022/12/03 06:54:43;;;;;;;30.77;22.23;;;1.80;99.90;;;;;;5054351;28;20474;-69
2022/12/03 06:57:10;;;;;;;34.83;21.30;;;1.70;99.90;;;;;;5056848;28;20456;-69
2022/12/03 06:59:37;;;;;;;33.80;23.23;;;1.70;99.90;;;;;;5053919;28;20486;-69
2022/12/03 07:02:04;;;;;;;30.20;21.30;;;1.70;99.90;;;;;;5051748;28;20906;-69
2022/12/03 07:04:30;;;;;;;31.90;21.47;;;1.70;99.90;;;;;;5057942;28;20462;-69
2022/12/03 07:06:57;;;;;;;33.87;20.90;;;1.60;99.90;;;;;;5063648;28;20465;-69
2022/12/03 07:09:24;;;;;;;33.10;23.60;;;1.60;99.90;;;;;;5063800;28;20470;-69
2022/12/03 07:11:53;;;;;;;29.07;22.43;;;1.60;99.90;;;;;;5063005;28;20822;-69
2022/12/03 07:14:20;;;;;;;28.43;20.10;;;1.70;99.90;;;;;;5059172;28;20799;-69
2022/12/03 07:16:47;;;;;;;27.70;20.70;;;1.60;99.90;;;;;;5058365;28;20469;-69
2022/12/03 07:19:14;;;;;;;40.40;22.47;;;1.60;99.90;;;;;;5058449;28;20502;-69
2022/12/03 07:21:41;;;;;;;32.50;20.73;;;1.40;99.90;;;;;;5063116;28;20966;-69
2022/12/03 07:24:08;;;;;;;30.53;21.97;;;1.50;99.90;;;;;;5060732;28;20466;-69
2022/12/03 07:26:35;;;;;;;38.20;22.93;;;1.60;99.90;;;;;;5060785;28;20529;-69
2022/12/03 07:29:04;;;;;;;32.90;22.63;;;1.60;99.90;;;;;;5062449;28;20482;-69
2022/12/03 07:31:31;;;;;;;29.23;20.30;;;1.60;99.90;;;;;;5057105;28;20464;-69
2022/12/03 07:33:58;;;;;;;34.07;21.17;;;1.60;99.90;;;;;;5060097;28;20719;-69
2022/12/03 07:36:24;;;;;;;36.80;22.80;;;1.60;99.90;;;;;;5062540;28;20498;-69
2022/12/03 07:38:51;;;;;;;39.83;22.13;;;1.60;99.90;;;;;;5054700;28;20804;-69
2022/12/03 07:41:18;;;;;;;29.33;19.97;;;1.60;99.90;;;;;;5062743;28;20884;-69
2022/12/03 07:43:45;;;;;;;30.67;20.93;;;1.60;99.90;;;;;;5059183;28;20454;-69
2022/12/03 07:46:13;;;;;;;34.30;21.00;;;1.60;99.90;;;;;;5052548;28;20490;-69
2022/12/03 07:48:40;;;;;;;38.43;21.87;;;1.70;99.90;;;;;;5058124;28;20887;-69
2022/12/03 07:51:07;;;;;;;37.27;21.47;;;1.60;99.90;;;;;;5057764;28;20467;-69
2022/12/03 07:53:36;;;;;;;33.07;22.00;;;1.60;99.90;;;;;;5065414;28;20462;-69
2022/12/03 07:56:03;;;;;;;32.30;21.37;;;1.80;99.90;;;;;;5061239;28;20474;-69
2022/12/03 07:58:30;;;;;;;35.73;22.30;;;1.60;99.90;;;;;;5057626;28;20504;-69
2022/12/03 08:00:57;;;;;;;32.60;21.93;;;1.50;99.90;;;;;;5054612;28;20641;-69
2022/12/03 08:03:26;;;;;;;31.57;21.33;;;1.60;99.90;;;;;;5053814;28;20997;-69
2022/12/03 08:05:53;;;;;;;31.87;21.40;;;1.70;99.90;;;;;;5058250;28;20497;-69
2022/12/03 08:08:19;;;;;;;33.77;22.33;;;1.60;99.90;;;;;;5062082;28;20467;-69
2022/12/03 08:10:46;;;;;;;30.00;21.10;;;1.50;99.90;;;;;;5061537;28;20973;-69
2022/12/03 08:13:15;;;;;;;31.80;22.93;;;1.50;99.90;;;;;;5055819;28;20553;-69
2022/12/03 08:15:42;;;;;;;35.80;23.50;;;1.60;99.90;;;;;;5056124;28;20980;-69
2022/12/03 08:18:14;;;;;;;34.73;23.97;;;1.50;99.90;;;;;;5057457;28;20455;-69
2022/12/03 08:20:44;;;;;;;40.47;26.67;;;1.50;99.90;;;;;;5054375;28;20455;-69
2022/12/03 08:23:14;;;;;;;33.67;22.90;;;1.50;99.90;;;;;;5070595;28;20445;-69
2022/12/03 08:25:42;;;;;;;31.70;22.50;;;1.60;99.90;;;;;;5066388;28;21089;-69
2022/12/03 08:28:13;;;;;;;35.93;22.40;;;1.60;99.90;;;;;;5057917;28;20953;-69
2022/12/03 08:30:40;;;;;;;34.93;23.47;;;1.60;99.90;;;;;;5061896;28;20470;-69
2022/12/03 08:33:17;;;;;;;33.87;22.03;;;1.70;99.90;;;;;;5065287;28;20456;-69
2022/12/03 08:35:49;;;;;;;30.20;21.03;;;1.70;99.90;;;;;;5062454;28;20883;-69
2022/12/03 08:38:18;;;;;;;23.53;18.77;;;1.70;99.90;;;;;;5064993;28;20524;-69
2022/12/03 08:40:47;;;;;;;25.80;19.77;;;1.70;99.90;;;;;;5057537;28;20545;-69
2022/12/03 08:43:19;;;;;;;37.53;21.87;;;1.70;99.90;;;;;;5059254;28;20817;-69
2022/12/03 08:45:48;;;;;;;24.43;19.50;;;1.90;99.90;;;;;;5060730;28;20494;-69
2022/12/03 08:48:31;;;;;;;31.40;22.17;;;1.80;99.90;;;;;;5057831;28;20495;-69
2022/12/03 08:51:03;;;;;;;33.40;22.80;;;2.00;99.90;;;;;;5049864;28;20478;-69
2022/12/03 08:53:33;;;;;;;31.47;21.90;;;2.10;99.90;;;;;;5058134;28;20549;-69
2022/12/03 08:56:01;;;;;;;32.63;21.13;;;2.10;99.90;;;;;;5058198;28;20460;-69
2022/12/03 08:58:36;;;;;;;34.90;22.27;;;2.00;99.90;;;;;;5058026;28;20471;-69
2022/12/03 09:01:33;;;;;;;41.93;22.57;;;2.20;99.90;;;;;;5053839;28;20477;-69
2022/12/03 09:04:18;;;;;;;35.70;22.87;;;2.20;99.90;;;;;;5054163;28;20464;-69
2022/12/03 09:06:47;;;;;;;32.90;24.43;;;2.20;99.90;;;;;;5052030;28;20562;-69
2022/12/03 09:09:14;;;;;;;32.10;23.40;;;2.30;99.90;;;;;;5051196;28;20486;-69
2022/12/03 09:11:43;;;;;;;33.40;23.63;;;2.20;99.90;;;;;;5058481;28;20467;-69
2022/12/03 09:14:09;;;;;;;31.40;22.80;;;2.20;99.90;;;;;;5052507;28;20509;-69
2022/12/03 09:16:37;;;;;;;34.40;24.50;;;2.20;99.90;;;;;;5050922;28;20957;-69
2022/12/03 09:19:05;;;;;;;35.57;22.07;;;2.20;99.90;;;;;;5062883;28;20498;-69
2022/12/03 09:21:32;;;;;;;33.77;24.97;;;2.30;99.90;;;;;;5056164;28;20934;-69
2022/12/03 09:24:00;;;;;;;33.93;24.37;;;2.10;99.90;;;;;;5057298;28;20475;-69
2022/12/03 09:26:27;;;;;;;34.83;23.37;;;2.30;99.90;;;;;;5053802;28;20490;-69
2022/12/03 09:28:54;;;;;;;35.53;23.83;;;2.30;99.90;;;;;;5052979;28;20468;-69
2022/12/03 09:31:20;;;;;;;30.57;23.60;;;2.50;99.90;;;;;;5055289;28;20463;-69
2022/12/03 09:33:47;;;;;;;35.73;23.33;;;2.50;99.90;;;;;;5055393;28;20464;-69
2022/12/03 09:36:15;;;;;;;35.90;24.37;;;2.60;99.90;;;;;;5055180;28;20976;-69
2022/12/03 09:38:41;;;;;;;34.40;25.43;;;2.70;99.90;;;;;;5056934;28;20474;-69
2022/12/03 09:41:10;;;;;;;34.77;25.03;;;2.80;99.90;;;;;;5050740;28;20958;-69
2022/12/03 09:43:37;;;;;;;37.33;24.60;;;2.90;99.90;;;;;;5051933;28;20865;-69
2022/12/03 09:46:05;;;;;;;29.60;23.20;;;3.00;99.90;;;;;;5052723;28;20542;-69
2022/12/03 09:48:32;;;;;;;36.07;25.30;;;3.10;99.90;;;;;;5059547;28;20459;-69
2022/12/03 09:50:58;;;;;;;32.33;25.10;;;3.10;99.90;;;;;;5058497;28;20968;-70
2022/12/03 09:53:28;;;;;;;33.43;22.93;;;3.10;99.90;;;;;;5052048;28;21146;-69
2022/12/03 09:55:58;;;;;;;28.97;23.97;;;3.20;99.90;;;;;;5049747;28;20471;-69
2022/12/03 09:58:28;;;;;;;27.87;24.13;;;3.10;99.90;;;;;;5048593;28;20462;-69
2022/12/03 10:00:55;;;;;;;27.47;22.77;;;3.20;99.90;;;;;;5058899;28;20459;-69
2022/12/03 10:03:26;;;;;;;34.50;26.30;;;3.20;99.90;;;;;;5053168;28;20882;-69
2022/12/03 10:05:54;;;;;;;29.27;25.10;;;3.10;99.90;;;;;;5055899;28;20487;-69
2022/12/03 10:08:23;;;;;;;26.47;23.57;;;3.10;99.90;;;;;;5059383;28;20973;-69
2022/12/03 10:10:55;;;;;;;37.40;25.70;;;3.20;99.90;;;;;;5054230;28;20914;-69
2022/12/03 10:13:25;;;;;;;29.43;24.43;;;3.40;99.90;;;;;;5054382;28;20460;-69
2022/12/03 10:15:56;;;;;;;30.20;21.80;;;3.50;99.90;;;;;;5052171;28;20464;-70
2022/12/03 10:18:25;;;;;;;33.57;25.50;;;3.40;99.90;;;;;;5058379;28;20463;-70
2022/12/03 10:20:52;;;;;;;28.63;24.33;;;3.50;99.90;;;;;;5058835;28;20469;-69
2022/12/03 10:23:21;;;;;;;29.43;23.03;;;3.70;99.90;;;;;;5055600;28;20491;-69
2022/12/03 10:25:53;;;;;;;36.87;23.87;;;3.60;99.90;;;;;;5054848;28;20554;-69
2022/12/03 10:28:31;;;;;;;27.97;24.50;;;3.40;99.90;;;;;;5057387;28;20466;-69
2022/12/03 10:31:00;;;;;;;26.20;23.43;;;3.30;99.90;;;;;;5057675;28;20933;-69
2022/12/03 10:33:34;;;;;;;27.87;23.07;;;3.30;99.90;;;;;;5052526;28;20471;-70
2022/12/03 10:36:16;;;;;;;29.43;23.50;;;3.40;99.90;;;;;;5064122;28;20463;-69
2022/12/03 10:38:43;;;;;;;24.80;21.90;;;3.50;99.90;;;;;;5060256;28;20473;-69
2022/12/03 10:41:24;;;;;;;29.93;24.27;;;3.40;99.90;;;;;;5064118;28;20485;-68
2022/12/03 10:43:52;;;;;;;28.00;22.93;;;3.50;99.90;;;;;;5061041;28;20462;-68
2022/12/03 10:46:22;;;;;;;27.63;23.50;;;3.40;99.90;;;;;;5060086;28;20511;-69
2022/12/03 10:49:11;;;;;;;28.27;24.30;;;3.30;99.90;;;;;;5062639;28;20494;-69
2022/12/03 10:51:38;;;;;;;29.03;22.80;;;3.40;99.90;;;;;;5059300;28;21003;-69
2022/12/03 10:54:15;;;;;;;26.77;23.80;;;3.50;99.90;;;;;;5055777;28;20458;-69
2022/12/03 10:56:42;;;;;;;27.63;23.97;;;3.60;99.90;;;;;;5065079;28;20473;-69
2022/12/03 10:59:15;;;;;;;28.77;23.20;;;3.50;99.90;;;;;;5062724;28;20470;-69
2022/12/03 11:01:44;;;;;;;26.87;23.17;;;3.50;99.90;;;;;;5062034;28;20498;-68
2022/12/03 11:04:21;;;;;;;27.03;22.73;;;3.50;99.90;;;;;;5059471;28;20856;-69
2022/12/03 11:06:48;;;;;;;29.97;22.63;;;3.60;99.90;;;;;;5062187;28;20506;-68
2022/12/03 11:09:20;;;;;;;31.77;24.10;;;3.70;99.90;;;;;;5056223;28;20463;-69
2022/12/03 11:11:49;;;;;;;27.20;23.80;;;3.70;99.90;;;;;;5059769;28;21049;-69
2022/12/03 11:14:55;;;;;;;27.03;24.13;;;3.70;99.90;;;;;;5058276;28;20879;-69
2022/12/03 11:17:42;;;;;;;27.90;24.13;;;3.60;99.90;;;;;;5039921;28;20684;-69
2022/12/03 11:20:12;;;;;;;26.50;23.70;;;3.60;99.90;;;;;;5062569;28;20863;-69
2022/12/03 11:22:44;;;;;;;24.77;22.20;;;3.70;99.90;;;;;;5060579;28;20578;-69
2022/12/03 11:25:35;;;;;;;25.57;22.70;;;3.60;99.90;;;;;;5060128;28;20812;-69
2022/12/03 11:28:38;;;;;;;27.60;22.90;;;3.80;99.90;;;;;;5060804;28;21072;-69
2022/12/03 11:31:27;;;;;;;27.87;24.73;;;3.70;99.90;;;;;;5062546;28;20463;-68
2022/12/03 11:34:49;;;;;;;28.10;25.17;;;3.90;99.90;;;;;;5060662;28;20498;-69
2022/12/03 11:37:27;;;;;;;28.53;25.33;;;4.20;99.90;;;;;;5060423;28;20566;-69
2022/12/03 11:40:00;;;;;;;26.30;23.50;;;4.30;99.90;;;;;;5056569;28;20456;-68
2022/12/03 11:42:38;;;;;;;30.90;24.87;;;4.30;99.90;;;;;;5051131;28;20467;-69
2022/12/03 11:45:18;;;;;;;28.63;24.37;;;4.20;99.90;;;;;;5059192;28;20463;-68
2022/12/03 11:47:47;;;;;;;28.60;23.40;;;4.00;99.90;;;;;;5057404;28;20494;-69
2022/12/03 11:50:23;;;;;;;28.60;25.20;;;4.20;99.90;;;;;;5056244;28;21111;-68
2022/12/03 11:52:54;;;;;;;35.87;25.80;;;4.30;99.90;;;;;;5062871;28;20767;-69
2022/12/03 11:55:29;;;;;;;29.23;24.80;;;4.30;99.90;;;;;;5056572;28;20462;-68
2022/12/03 11:57:57;;;;;;;31.90;26.47;;;4.20;99.90;;;;;;5053217;28;20522;-69
2022/12/03 12:00:25;;;;;;;32.27;24.00;;;4.20;99.90;;;;;;5059687;28;20575;-68
2022/12/03 12:02:55;;;;;;;31.40;26.33;;;4.10;99.90;;;;;;5056646;28;20456;-68
2022/12/03 12:05:27;;;;;;;29.90;26.03;;;4.00;99.90;;;;;;5057951;28;20490;-69
2022/12/03 12:07:55;;;;;;;28.00;23.50;;;4.00;99.90;;;;;;5057876;28;20487;-68
2022/12/03 12:10:39;;;;;;;27.17;24.17;;;3.90;99.90;;;;;;5056051;28;20761;-68
2022/12/03 12:13:07;;;;;;;28.17;24.67;;;3.80;99.90;;;;;;5065489;28;21117;-69
2022/12/03 12:15:42;;;;;;;29.40;24.10;;;3.90;99.90;;;;;;5052552;28;21195;-68
2022/12/03 12:18:34;;;;;;;28.53;25.53;;;4.00;99.90;;;;;;5061675;28;20454;-68
2022/12/03 12:21:34;;;;;;;28.83;23.40;;;3.70;99.90;;;;;;5055064;28;20473;-68
2022/12/03 12:24:45;;;;;;;27.53;24.00;;;3.70;99.90;;;;;;5051700;28;20914;-69
2022/12/03 12:27:13;;;;;;;38.60;23.90;;;3.90;99.90;;;;;;5057452;28;20536;-68
2022/12/03 12:29:42;;;;;;;28.93;24.20;;;4.10;99.90;;;;;;5054530;28;20865;-68
2022/12/03 12:32:15;;;;;;;34.23;28.47;;;4.00;99.90;;;;;;5054737;28;20471;-68
2022/12/03 12:34:43;;;;;;;31.97;27.97;;;4.20;99.90;;;;;;5057040;28;20915;-68
2022/12/03 12:37:12;;;;;;;38.00;27.00;;;4.00;99.90;;;;;;5054666;28;20604;-69
2022/12/03 12:39:41;;;;;;;35.70;25.93;;;4.00;99.90;;;;;;5056293;28;20466;-68
2022/12/03 12:42:30;;;;;;;32.73;25.97;;;3.90;99.90;;;;;;5055638;28;20459;-68
2022/12/03 12:45:01;;;;;;;32.87;27.90;;;3.80;99.90;;;;;;5056536;28;20464;-68
2022/12/03 12:47:30;;;;;;;32.10;27.90;;;3.80;99.90;;;;;;5055415;28;20591;-69
2022/12/03 12:50:11;;;;;;;26.00;23.03;;;3.80;99.90;;;;;;5056241;28;20579;-68
2022/12/03 12:52:48;;;;;;;28.80;24.20;;;4.00;99.90;;;;;;5056127;28;20474;-68
2022/12/03 12:55:17;;;;;;;29.03;24.83;;;3.80;99.90;;;;;;5056337;28;20462;-70
2022/12/03 12:57:44;;;;;;;31.43;26.27;;;3.80;99.90;;;;;;5056648;28;20450;-68
2022/12/03 13:00:15;;;;;;;29.40;25.20;;;3.70;99.90;;;;;;5060243;28;20459;-68
2022/12/03 13:02:48;;;;;;;31.07;25.13;;;3.90;99.90;;;;;;5051115;28;20455;-68
2022/12/03 13:05:15;;;;;;;26.07;23.47;;;3.90;99.90;;;;;;5056856;28;20802;-68
2022/12/03 13:07:43;;;;;;;30.80;24.90;;;4.00;99.90;;;;;;5054037;28;20713;-68